sensor_id;sensor_type;location;lat;lon;timestamp;pressure;altitude;pressure_sealevel;temperature;humidity
8061;BME280;4073;42.626;25.386;2022-11-23T00:01:15;96151.09;;;10.82;100.00
8061;BME280;4073;42.626;25.386;2022-11-23T00:03:42;96150.41;;;10.77;100.00
8061;BME280;4073;42.626;25.386;2022-11-23T00:06:08;96151.22;;;10.77;100.00
8061;BME280;4073;42.626;25.386;2022-11-23T00:08:34;96136.44;;;10.66;100.00
8061;BME280;4073;42.626;25.386;2022-11-23T00:10:59;96128.13;;;10.68;100.00
8061;BME280;4073;42.626;25.386;2022-11-23T00:13:26;96132.06;;;10.57;100.00
8061;BME280;4073;42.626;25.386;2022-11-23T00:15:51;96088.22;;;10.44;100.00
8061;BME280;4073;42.626;25.386;2022-11-23T00:18:17;96101.31;;;10.73;100.00
8061;BME280;4073;42.626;25.386;2022-11-23T00:20:42;96100.22;;;10.74;100.00
8061;BME280;4073;42.626;25.386;2022-11-23T00:23:08;96097.75;;;10.77;100.00
8061;BME280;4073;42.626;25.386;2022-11-23T00:25:34;96077.63;;;10.80;100.00
8061;BME280;4073;42.626;25.386;2022-11-23T00:27:59;96074.66;;;10.81;100.00
8061;BME280;4073;42.626;25.386;2022-11-23T00:30:25;96072.00;;;10.81;100.00
8061;BME280;4073;42.626;25.386;2022-11-23T00:32:50;96066.72;;;10.76;100.00
8061;BME280;4073;42.626;25.386;2022-11-23T00:35:16;96046.28;;;10.58;100.00
8061;BME280;4073;42.626;25.386;2022-11-23T00:37:41;96062.66;;;10.79;100.00
8061;BME280;4073;42.626;25.386;2022-11-23T00:40:07;96042.13;;;10.66;100.00
8061;BME280;4073;42.626;25.386;2022-11-23T00:42:33;96033.91;;;10.48;100.00
8061;BME280;4073;42.626;25.386;2022-11-23T00:44:58;96062.31;;;10.58;100.00
8061;BME280;4073;42.626;25.386;2022-11-23T00:47:24;96053.31;;;10.54;100.00
8061;BME280;4073;42.626;25.386;2022-11-23T00:49:49;96027.88;;;10.43;100.00
8061;BME280;4073;42.626;25.386;2022-11-23T00:52:14;96065.16;;;10.62;100.00
8061;BME280;4073;42.626;25.386;2022-11-23T00:54:40;96076.56;;;10.67;100.00
8061;BME280;4073;42.626;25.386;2022-11-23T00:57:05;96059.44;;;10.68;100.00
8061;BME280;4073;42.626;25.386;2022-11-23T00:59:31;96057.44;;;10.74;100.00
8061;BME280;4073;42.626;25.386;2022-11-23T01:01:56;96060.09;;;10.74;100.00
8061;BME280;4073;42.626;25.386;2022-11-23T01:04:22;96065.16;;;10.75;100.00
8061;BME280;4073;42.626;25.386;2022-11-23T01:06:47;96028.19;;;10.41;100.00
8061;BME280;4073;42.626;25.386;2022-11-23T01:09:15;96059.59;;;10.72;100.00
8061;BME280;4073;42.626;25.386;2022-11-23T01:11:45;96050.31;;;10.69;100.00
8061;BME280;4073;42.626;25.386;2022-11-23T01:14:11;96060.78;;;10.79;100.00
8061;BME280;4073;42.626;25.386;2022-11-23T01:16:38;96058.03;;;10.84;100.00
8061;BME280;4073;42.626;25.386;2022-11-23T01:19:07;96049.88;;;10.89;100.00
8061;BME280;4073;42.626;25.386;2022-11-23T01:21:34;96046.63;;;10.92;100.00
8061;BME280;4073;42.626;25.386;2022-11-23T01:24:07;96032.75;;;10.90;100.00
8061;BME280;4073;42.626;25.386;2022-11-23T01:26:33;96026.41;;;10.86;100.00
8061;BME280;4073;42.626;25.386;2022-11-23T01:28:59;96036.00;;;10.87;100.00
8061;BME280;4073;42.626;25.386;2022-11-23T01:31:25;96034.94;;;10.88;100.00
8061;BME280;4073;42.626;25.386;2022-11-23T01:33:55;96019.69;;;10.89;100.00
8061;BME280;4073;42.626;25.386;2022-11-23T01:36:24;96012.97;;;10.91;100.00
8061;BME280;4073;42.626;25.386;2022-11-23T01:38:50;96018.47;;;10.95;100.00
8061;BME280;4073;42.626;25.386;2022-11-23T01:41:22;96011.25;;;10.95;100.00
8061;BME280;4073;42.626;25.386;2022-11-23T01:43:49;95995.00;;;10.92;100.00
8061;BME280;4073;42.626;25.386;2022-11-23T01:46:16;95997.13;;;10.81;100.00
8061;BME280;4073;42.626;25.386;2022-11-23T01:51:19;95995.22;;;10.82;100.00
8061;BME280;4073;42.626;25.386;2022-11-23T01:53:48;95983.00;;;10.67;100.00
8061;BME280;4073;42.626;25.386;2022-11-23T01:56:25;95973.41;;;10.66;100.00
8061;BME280;4073;42.626;25.386;2022-11-23T01:58:54;95981.25;;;10.49;100.00
8061;BME280;4073;42.626;25.386;2022-11-23T02:01:21;95988.56;;;10.43;100.00
8061;BME280;4073;42.626;25.386;2022-11-23T02:03:47;95949.81;;;10.32;100.00
8061;BME280;4073;42.626;25.386;2022-11-23T02:06:16;95976.69;;;10.49;100.00
8061;BME280;4073;42.626;25.386;2022-11-23T02:08:42;95983.03;;;10.53;100.00
8061;BME280;4073;42.626;25.386;2022-11-23T02:11:13;95967.78;;;10.54;100.00
8061;BME280;4073;42.626;25.386;2022-11-23T02:13:39;95979.63;;;10.62;100.00
8061;BME280;4073;42.626;25.386;2022-11-23T02:16:06;95974.63;;;10.60;100.00
8061;BME280;4073;42.626;25.386;2022-11-23T02:18:33;95949.69;;;10.37;100.00
8061;BME280;4073;42.626;25.386;2022-11-23T02:21:01;95966.53;;;10.52;100.00
8061;BME280;4073;42.626;25.386;2022-11-23T02:26:21;95962.53;;;10.49;100.00
8061;BME280;4073;42.626;25.386;2022-11-23T02:28:53;95951.97;;;10.44;100.00
8061;BME280;4073;42.626;25.386;2022-11-23T02:31:20;95947.41;;;10.44;100.00
8061;BME280;4073;42.626;25.386;2022-11-23T02:33:45;95928.53;;;10.41;100.00
8061;BME280;4073;42.626;25.386;2022-11-23T02:38:55;95911.22;;;10.38;100.00
8061;BME280;4073;42.626;25.386;2022-11-23T02:41:23;95901.16;;;10.22;100.00
8061;BME280;4073;42.626;25.386;2022-11-23T02:43:52;95920.59;;;10.36;100.00
8061;BME280;4073;42.626;25.386;2022-11-23T02:46:19;95923.59;;;10.34;100.00
8061;BME280;4073;42.626;25.386;2022-11-23T02:48:44;95929.94;;;10.38;100.00
8061;BME280;4073;42.626;25.386;2022-11-23T02:51:09;95923.69;;;10.29;100.00
8061;BME280;4073;42.626;25.386;2022-11-23T02:53:35;95930.22;;;10.37;100.00
8061;BME280;4073;42.626;25.386;2022-11-23T02:56:00;95919.25;;;10.25;100.00
8061;BME280;4073;42.626;25.386;2022-11-23T02:58:26;95936.78;;;10.53;100.00
8061;BME280;4073;42.626;25.386;2022-11-23T03:00:51;95937.69;;;10.62;100.00
8061;BME280;4073;42.626;25.386;2022-11-23T03:03:17;95921.84;;;10.66;100.00
8061;BME280;4073;42.626;25.386;2022-11-23T03:05:42;95921.03;;;10.65;100.00
8061;BME280;4073;42.626;25.386;2022-11-23T03:08:08;95915.81;;;10.60;100.00
8061;BME280;4073;42.626;25.386;2022-11-23T03:10:33;95919.63;;;10.68;100.00
8061;BME280;4073;42.626;25.386;2022-11-23T03:12:59;95920.16;;;10.70;100.00
8061;BME280;4073;42.626;25.386;2022-11-23T03:15:24;95888.81;;;10.48;100.00
8061;BME280;4073;42.626;25.386;2022-11-23T03:17:50;95915.69;;;10.65;100.00
8061;BME280;4073;42.626;25.386;2022-11-23T03:20:16;95927.50;;;10.64;100.00
8061;BME280;4073;42.626;25.386;2022-11-23T03:22:42;95898.84;;;10.42;100.00
8061;BME280;4073;42.626;25.386;2022-11-23T03:25:07;95928.97;;;10.57;100.00
8061;BME280;4073;42.626;25.386;2022-11-23T03:27:33;95898.03;;;10.42;100.00
8061;BME280;4073;42.626;25.386;2022-11-23T03:29:59;95938.56;;;10.57;100.00
8061;BME280;4073;42.626;25.386;2022-11-23T03:32:25;95928.59;;;10.49;100.00
8061;BME280;4073;42.626;25.386;2022-11-23T03:34:50;95928.00;;;10.52;100.00
8061;BME280;4073;42.626;25.386;2022-11-23T03:37:16;95924.44;;;10.57;100.00
8061;BME280;4073;42.626;25.386;2022-11-23T03:39:41;95913.69;;;10.48;100.00
8061;BME280;4073;42.626;25.386;2022-11-23T03:42:07;95924.91;;;10.59;100.00
8061;BME280;4073;42.626;25.386;2022-11-23T03:44:32;95926.00;;;10.58;100.00
8061;BME280;4073;42.626;25.386;2022-11-23T03:46:57;95916.72;;;10.56;100.00
8061;BME280;4073;42.626;25.386;2022-11-23T03:49:23;95913.78;;;10.43;100.00
8061;BME280;4073;42.626;25.386;2022-11-23T03:51:49;95918.00;;;10.58;100.00
8061;BME280;4073;42.626;25.386;2022-11-23T03:54:15;95895.56;;;10.45;100.00
8061;BME280;4073;42.626;25.386;2022-11-23T03:56:40;95909.38;;;10.61;100.00
8061;BME280;4073;42.626;25.386;2022-11-23T03:59:06;95907.81;;;10.60;100.00
8061;BME280;4073;42.626;25.386;2022-11-23T04:01:31;95889.94;;;10.47;100.00
8061;BME280;4073;42.626;25.386;2022-11-23T04:03:57;95909.75;;;10.68;100.00
8061;BME280;4073;42.626;25.386;2022-11-23T04:06:22;95897.66;;;10.71;100.00
8061;BME280;4073;42.626;25.386;2022-11-23T04:08:48;95908.25;;;10.76;100.00
8061;BME280;4073;42.626;25.386;2022-11-23T04:11:13;95903.22;;;10.74;100.00
8061;BME280;4073;42.626;25.386;2022-11-23T04:13:39;95909.53;;;10.78;100.00
8061;BME280;4073;42.626;25.386;2022-11-23T04:16:05;95879.97;;;10.61;100.00
8061;BME280;4073;42.626;25.386;2022-11-23T04:18:31;95892.50;;;10.74;100.00
8061;BME280;4073;42.626;25.386;2022-11-23T04:20:57;95876.03;;;10.59;100.00
8061;BME280;4073;42.626;25.386;2022-11-23T04:23:22;95906.03;;;10.78;100.00
8061;BME280;4073;42.626;25.386;2022-11-23T04:25:48;95873.22;;;10.64;100.00
8061;BME280;4073;42.626;25.386;2022-11-23T04:28:13;95889.34;;;10.72;100.00
8061;BME280;4073;42.626;25.386;2022-11-23T04:30:39;95886.56;;;10.77;100.00
8061;BME280;4073;42.626;25.386;2022-11-23T04:33:04;95889.53;;;10.76;100.00
8061;BME280;4073;42.626;25.386;2022-11-23T04:35:30;95873.50;;;10.76;100.00
8061;BME280;4073;42.626;25.386;2022-11-23T04:37:55;95844.88;;;10.54;100.00
8061;BME280;4073;42.626;25.386;2022-11-23T04:40:21;95851.78;;;10.55;100.00
8061;BME280;4073;42.626;25.386;2022-11-23T04:42:46;95858.16;;;10.45;100.00
8061;BME280;4073;42.626;25.386;2022-11-23T04:45:11;95881.25;;;10.64;100.00
8061;BME280;4073;42.626;25.386;2022-11-23T04:47:37;95879.56;;;10.68;100.00
8061;BME280;4073;42.626;25.386;2022-11-23T04:50:03;95848.16;;;10.51;100.00
8061;BME280;4073;42.626;25.386;2022-11-23T04:52:28;95854.16;;;10.57;100.00
8061;BME280;4073;42.626;25.386;2022-11-23T04:54:54;95864.69;;;10.75;100.00
8061;BME280;4073;42.626;25.386;2022-11-23T04:57:19;95858.44;;;10.80;100.00
8061;BME280;4073;42.626;25.386;2022-11-23T04:59:44;95859.03;;;10.77;100.00
8061;BME280;4073;42.626;25.386;2022-11-23T05:02:10;95856.66;;;10.75;100.00
8061;BME280;4073;42.626;25.386;2022-11-23T05:04:35;95867.84;;;10.77;100.00
8061;BME280;4073;42.626;25.386;2022-11-23T05:07:01;95862.81;;;10.76;100.00
8061;BME280;4073;42.626;25.386;2022-11-23T05:09:26;95854.00;;;10.75;100.00
8061;BME280;4073;42.626;25.386;2022-11-23T05:11:52;95863.41;;;10.73;100.00
8061;BME280;4073;42.626;25.386;2022-11-23T05:14:17;95821.28;;;10.34;100.00
8061;BME280;4073;42.626;25.386;2022-11-23T05:16:42;95878.09;;;10.62;100.00
8061;BME280;4073;42.626;25.386;2022-11-23T05:19:08;95858.16;;;10.45;100.00
8061;BME280;4073;42.626;25.386;2022-11-23T05:21:34;95883.25;;;10.58;100.00
8061;BME280;4073;42.626;25.386;2022-11-23T05:23:59;95839.56;;;10.40;100.00
8061;BME280;4073;42.626;25.386;2022-11-23T05:29:09;95877.09;;;10.57;100.00
8061;BME280;4073;42.626;25.386;2022-11-23T05:31:34;95884.53;;;10.61;100.00
8061;BME280;4073;42.626;25.386;2022-11-23T05:34:00;95867.16;;;10.49;100.00
8061;BME280;4073;42.626;25.386;2022-11-23T05:36:25;95883.63;;;10.65;100.00
8061;BME280;4073;42.626;25.386;2022-11-23T05:38:50;95870.63;;;10.50;100.00
8061;BME280;4073;42.626;25.386;2022-11-23T05:41:16;95868.06;;;10.45;100.00
8061;BME280;4073;42.626;25.386;2022-11-23T05:43:42;95886.59;;;10.64;100.00
8061;BME280;4073;42.626;25.386;2022-11-23T05:46:07;95863.97;;;10.47;100.00
8061;BME280;4073;42.626;25.386;2022-11-23T05:48:32;95863.38;;;10.50;100.00
8061;BME280;4073;42.626;25.386;2022-11-23T05:50:58;95871.38;;;10.64;100.00
8061;BME280;4073;42.626;25.386;2022-11-23T05:53:23;95853.28;;;10.47;100.00
8061;BME280;4073;42.626;25.386;2022-11-23T05:55:49;95876.22;;;10.62;100.00
8061;BME280;4073;42.626;25.386;2022-11-23T05:58:14;95849.72;;;10.52;100.00
8061;BME280;4073;42.626;25.386;2022-11-23T06:00:39;95867.00;;;10.68;100.00
8061;BME280;4073;42.626;25.386;2022-11-23T06:03:05;95869.06;;;10.71;100.00
8061;BME280;4073;42.626;25.386;2022-11-23T06:05:30;95870.13;;;10.70;100.00
8061;BME280;4073;42.626;25.386;2022-11-23T06:07:56;95885.75;;;10.77;100.00
8061;BME280;4073;42.626;25.386;2022-11-23T06:10:22;95890.91;;;10.73;100.00
8061;BME280;4073;42.626;25.386;2022-11-23T06:12:47;95882.22;;;10.68;100.00
8061;BME280;4073;42.626;25.386;2022-11-23T06:15:15;95911.47;;;10.86;100.00
8061;BME280;4073;42.626;25.386;2022-11-23T06:17:40;95881.81;;;10.74;100.00
8061;BME280;4073;42.626;25.386;2022-11-23T06:20:06;95888.75;;;10.75;100.00
8061;BME280;4073;42.626;25.386;2022-11-23T06:22:32;95875.88;;;10.77;100.00
8061;BME280;4073;42.626;25.386;2022-11-23T06:24:58;95881.69;;;10.79;100.00
8061;BME280;4073;42.626;25.386;2022-11-23T06:27:23;95902.09;;;10.97;100.00
8061;BME280;4073;42.626;25.386;2022-11-23T06:29:49;95895.38;;;11.00;100.00
8061;BME280;4073;42.626;25.386;2022-11-23T06:32:14;95895.38;;;11.00;100.00
8061;BME280;4073;42.626;25.386;2022-11-23T06:34:40;95887.16;;;10.96;100.00
8061;BME280;4073;42.626;25.386;2022-11-23T06:37:05;95888.06;;;10.92;100.00
8061;BME280;4073;42.626;25.386;2022-11-23T06:39:31;95897.69;;;10.93;100.00
8061;BME280;4073;42.626;25.386;2022-11-23T06:41:56;95897.56;;;10.98;100.00
8061;BME280;4073;42.626;25.386;2022-11-23T06:44:22;95876.22;;;10.84;100.00
8061;BME280;4073;42.626;25.386;2022-11-23T06:46:47;95892.19;;;10.98;100.00
8061;BME280;4073;42.626;25.386;2022-11-23T06:49:13;95899.31;;;11.02;100.00
8061;BME280;4073;42.626;25.386;2022-11-23T06:51:38;95881.75;;;10.88;100.00
8061;BME280;4073;42.626;25.386;2022-11-23T06:54:04;95918.19;;;11.06;100.00
8061;BME280;4073;42.626;25.386;2022-11-23T06:56:32;95893.91;;;10.94;100.00
8061;BME280;4073;42.626;25.386;2022-11-23T06:58:58;95915.13;;;11.12;100.00
8061;BME280;4073;42.626;25.386;2022-11-23T07:01:24;95917.97;;;11.16;100.00
8061;BME280;4073;42.626;25.386;2022-11-23T07:03:49;95915.28;;;11.16;100.00
8061;BME280;4073;42.626;25.386;2022-11-23T07:06:14;95924.91;;;11.17;100.00
8061;BME280;4073;42.626;25.386;2022-11-23T07:08:40;95925.31;;;11.10;100.00
8061;BME280;4073;42.626;25.386;2022-11-23T07:11:09;95942.53;;;11.18;100.00
8061;BME280;4073;42.626;25.386;2022-11-23T07:13:35;95930.00;;;11.05;100.00
8061;BME280;4073;42.626;25.386;2022-11-23T07:16:00;95941.44;;;11.19;100.00
8061;BME280;4073;42.626;25.386;2022-11-23T07:18:26;95936.38;;;11.17;100.00
8061;BME280;4073;42.626;25.386;2022-11-23T07:20:52;95902.91;;;10.98;100.00
8061;BME280;4073;42.626;25.386;2022-11-23T07:23:17;95929.97;;;11.18;100.00
8061;BME280;4073;42.626;25.386;2022-11-23T07:25:43;95923.31;;;11.16;100.00
8061;BME280;4073;42.626;25.386;2022-11-23T07:28:09;95907.13;;;10.99;100.00
8061;BME280;4073;42.626;25.386;2022-11-23T07:30:36;95938.09;;;11.13;100.00
8061;BME280;4073;42.626;25.386;2022-11-23T07:33:06;95929.75;;;11.15;100.00
8061;BME280;4073;42.626;25.386;2022-11-23T07:35:33;95930.56;;;11.15;100.00
8061;BME280;4073;42.626;25.386;2022-11-23T07:37:59;95926.47;;;11.18;100.00
8061;BME280;4073;42.626;25.386;2022-11-23T07:40:25;95922.91;;;11.22;100.00
8061;BME280;4073;42.626;25.386;2022-11-23T07:42:51;95921.03;;;11.31;100.00
8061;BME280;4073;42.626;25.386;2022-11-23T07:45:17;95902.09;;;11.19;100.00
8061;BME280;4073;42.626;25.386;2022-11-23T07:47:43;95917.66;;;11.39;100.00
8061;BME280;4073;42.626;25.386;2022-11-23T07:50:10;95922.03;;;11.35;100.00
8061;BME280;4073;42.626;25.386;2022-11-23T07:52:37;95890.50;;;11.24;100.00
8061;BME280;4073;42.626;25.386;2022-11-23T07:55:03;95926.50;;;11.48;100.00
8061;BME280;4073;42.626;25.386;2022-11-23T07:57:29;95922.44;;;11.51;100.00
8061;BME280;4073;42.626;25.386;2022-11-23T07:59:54;95906.44;;;11.37;100.00
8061;BME280;4073;42.626;25.386;2022-11-23T08:02:20;95931.72;;;11.53;100.00
8061;BME280;4073;42.626;25.386;2022-11-23T08:04:45;95943.84;;;11.51;100.00
8061;BME280;4073;42.626;25.386;2022-11-23T08:07:11;95933.59;;;11.53;100.00
8061;BME280;4073;42.626;25.386;2022-11-23T08:09:37;95907.72;;;11.40;100.00
8061;BME280;4073;42.626;25.386;2022-11-23T08:12:05;95922.28;;;11.56;100.00
8061;BME280;4073;42.626;25.386;2022-11-23T08:14:30;95927.66;;;11.56;100.00
8061;BME280;4073;42.626;25.386;2022-11-23T08:16:56;95931.53;;;11.50;100.00
8061;BME280;4073;42.626;25.386;2022-11-23T08:19:21;95931.72;;;11.53;100.00
8061;BME280;4073;42.626;25.386;2022-11-23T08:21:47;95927.94;;;11.54;100.00
8061;BME280;4073;42.626;25.386;2022-11-23T08:24:12;95914.97;;;11.39;100.00
8061;BME280;4073;42.626;25.386;2022-11-23T08:26:38;95930.81;;;11.58;100.00
8061;BME280;4073;42.626;25.386;2022-11-23T08:29:04;95924.66;;;11.57;100.00
8061;BME280;4073;42.626;25.386;2022-11-23T08:31:30;95915.53;;;11.58;100.00
8061;BME280;4073;42.626;25.386;2022-11-23T08:33:55;95919.00;;;11.59;100.00
8061;BME280;4073;42.626;25.386;2022-11-23T08:36:21;95930.81;;;11.58;100.00
8061;BME280;4073;42.626;25.386;2022-11-23T08:38:46;95933.78;;;11.56;100.00
8061;BME280;4073;42.626;25.386;2022-11-23T08:41:16;95917.31;;;11.63;100.00
8061;BME280;4073;42.626;25.386;2022-11-23T08:43:48;95920.19;;;11.66;100.00
8061;BME280;4073;42.626;25.386;2022-11-23T08:46:14;95895.38;;;11.52;100.00
8061;BME280;4073;42.626;25.386;2022-11-23T08:48:39;95914.88;;;11.75;100.00
8061;BME280;4073;42.626;25.386;2022-11-23T08:51:07;95914.38;;;11.73;100.00
8061;BME280;4073;42.626;25.386;2022-11-23T08:53:32;95926.69;;;11.74;100.00
8061;BME280;4073;42.626;25.386;2022-11-23T08:56:03;95897.44;;;11.55;100.00
8061;BME280;4073;42.626;25.386;2022-11-23T08:58:29;95931.41;;;11.77;100.00
8061;BME280;4073;42.626;25.386;2022-11-23T09:00:55;95932.34;;;11.72;100.00
8061;BME280;4073;42.626;25.386;2022-11-23T09:03:20;95923.25;;;11.60;100.00
8061;BME280;4073;42.626;25.386;2022-11-23T09:05:45;95934.72;;;11.74;100.00
8061;BME280;4073;42.626;25.386;2022-11-23T09:08:11;95936.75;;;11.77;100.00
8061;BME280;4073;42.626;25.386;2022-11-23T09:10:36;95916.81;;;11.61;100.00
8061;BME280;4073;42.626;25.386;2022-11-23T09:13:03;95926.53;;;11.79;100.00
8061;BME280;4073;42.626;25.386;2022-11-23T09:15:28;95914.41;;;11.81;100.00
8061;BME280;4073;42.626;25.386;2022-11-23T09:17:55;95909.69;;;11.87;100.00
8061;BME280;4073;42.626;25.386;2022-11-23T09:20:21;95903.13;;;11.93;100.00
8061;BME280;4073;42.626;25.386;2022-11-23T09:22:54;95889.91;;;11.96;100.00
8061;BME280;4073;42.626;25.386;2022-11-23T09:25:21;95882.97;;;12.04;100.00
8061;BME280;4073;42.626;25.386;2022-11-23T09:27:47;95873.41;;;12.11;100.00
8061;BME280;4073;42.626;25.386;2022-11-23T09:30:13;95871.03;;;12.18;100.00
8061;BME280;4073;42.626;25.386;2022-11-23T09:32:39;95880.50;;;12.24;100.00
8061;BME280;4073;42.626;25.386;2022-11-23T09:35:05;95884.13;;;12.28;100.00
8061;BME280;4073;42.626;25.386;2022-11-23T09:37:31;95887.13;;;12.27;100.00
8061;BME280;4073;42.626;25.386;2022-11-23T09:39:56;95894.38;;;12.26;100.00
8061;BME280;4073;42.626;25.386;2022-11-23T09:45:21;95888.56;;;12.24;100.00
8061;BME280;4073;42.626;25.386;2022-11-23T09:50:45;95883.22;;;12.33;100.00
8061;BME280;4073;42.626;25.386;2022-11-23T09:53:16;95878.47;;;12.30;100.00
8061;BME280;4073;42.626;25.386;2022-11-23T09:55:50;95883.22;;;12.33;100.00
8061;BME280;4073;42.626;25.386;2022-11-23T09:58:20;95871.69;;;12.32;100.00
8061;BME280;4073;42.626;25.386;2022-11-23T10:00:51;95856.06;;;12.17;100.00
8061;BME280;4073;42.626;25.386;2022-11-23T10:03:18;95862.22;;;12.35;100.00
8061;BME280;4073;42.626;25.386;2022-11-23T10:05:56;95873.75;;;12.35;100.00
8061;BME280;4073;42.626;25.386;2022-11-23T10:26:11;95849.94;;;12.59;100.00
8061;BME280;4073;42.626;25.386;2022-11-23T10:28:38;95840.66;;;12.65;100.00
8061;BME280;4073;42.626;25.386;2022-11-23T10:31:17;95822.69;;;12.66;100.00
8061;BME280;4073;42.626;25.386;2022-11-23T10:36:17;95844.88;;;12.92;100.00
8061;BME280;4073;42.626;25.386;2022-11-23T10:38:42;95844.91;;;13.00;100.00
8061;BME280;4073;42.626;25.386;2022-11-23T10:41:13;95845.06;;;13.04;100.00
8061;BME280;4073;42.626;25.386;2022-11-23T10:48:47;95842.06;;;13.06;100.00
8061;BME280;4073;42.626;25.386;2022-11-23T10:51:20;95810.34;;;12.82;100.00
8061;BME280;4073;42.626;25.386;2022-11-23T10:53:53;95843.00;;;13.01;100.00
8061;BME280;4073;42.626;25.386;2022-11-23T10:56:20;95827.22;;;12.91;100.00
8061;BME280;4073;42.626;25.386;2022-11-23T10:58:46;95836.06;;;13.09;100.00
8061;BME280;4073;42.626;25.386;2022-11-23T11:01:18;95839.38;;;13.14;100.00
8061;BME280;4073;42.626;25.386;2022-11-23T11:03:47;95843.59;;;13.24;100.00
8061;BME280;4073;42.626;25.386;2022-11-23T11:06:24;95844.38;;;13.33;100.00
8061;BME280;4073;42.626;25.386;2022-11-23T11:08:55;95841.03;;;13.44;100.00
8061;BME280;4073;42.626;25.386;2022-11-23T11:11:28;95840.03;;;13.49;100.00
8061;BME280;4073;42.626;25.386;2022-11-23T11:14:15;95837.50;;;13.52;100.00
8061;BME280;4073;42.626;25.386;2022-11-23T11:16:48;95841.59;;;13.58;100.00
8061;BME280;4073;42.626;25.386;2022-11-23T11:19:31;95853.38;;;13.66;100.00
8061;BME280;4073;42.626;25.386;2022-11-23T11:21:58;95851.03;;;13.73;100.00
8061;BME280;4073;42.626;25.386;2022-11-23T11:24:37;95851.34;;;13.71;100.00
8061;BME280;4073;42.626;25.386;2022-11-23T11:27:19;95831.03;;;13.53;100.00
8061;BME280;4073;42.626;25.386;2022-11-23T11:29:46;95843.00;;;13.64;100.00
8061;BME280;4073;42.626;25.386;2022-11-23T11:32:27;95842.19;;;13.64;100.00
8061;BME280;4073;42.626;25.386;2022-11-23T11:35:02;95838.72;;;13.63;100.00
8061;BME280;4073;42.626;25.386;2022-11-23T11:37:36;95838.56;;;13.68;100.00
8061;BME280;4073;42.626;25.386;2022-11-23T11:42:44;95836.16;;;13.75;100.00
8061;BME280;4073;42.626;25.386;2022-11-23T11:45:20;95838.16;;;13.87;100.00
8061;BME280;4073;42.626;25.386;2022-11-23T11:48:02;95834.91;;;14.02;100.00
8061;BME280;4073;42.626;25.386;2022-11-23T11:50:32;95835.31;;;14.12;100.00
8061;BME280;4073;42.626;25.386;2022-11-23T11:53:08;95841.41;;;14.21;100.00
8061;BME280;4073;42.626;25.386;2022-11-23T11:55:55;95848.22;;;14.27;100.00
8061;BME280;4073;42.626;25.386;2022-11-23T11:58:25;95849.13;;;14.31;100.00
8061;BME280;4073;42.626;25.386;2022-11-23T12:04:05;95855.50;;;14.18;100.00
8061;BME280;4073;42.626;25.386;2022-11-23T12:06:36;95850.00;;;14.15;100.00
8061;BME280;4073;42.626;25.386;2022-11-23T12:09:19;95845.59;;;14.10;100.00
8061;BME280;4073;42.626;25.386;2022-11-23T12:11:47;95820.72;;;13.93;100.00
8061;BME280;4073;42.626;25.386;2022-11-23T12:14:13;95854.50;;;14.02;100.00
8061;BME280;4073;42.626;25.386;2022-11-23T12:25:20;95855.09;;;14.08;100.00
8061;BME280;4073;42.626;25.386;2022-11-23T12:38:30;95869.09;;;14.22;100.00
8061;BME280;4073;42.626;25.386;2022-11-23T12:46:24;95865.22;;;14.11;100.00
8061;BME280;4073;42.626;25.386;2022-11-23T12:54:50;95870.38;;;13.87;100.00
8061;BME280;4073;42.626;25.386;2022-11-23T12:57:39;95878.47;;;13.78;100.00
8061;BME280;4073;42.626;25.386;2022-11-23T13:00:18;95869.81;;;13.73;100.00
8061;BME280;4073;42.626;25.386;2022-11-23T13:11:36;95881.75;;;13.92;100.00
8061;BME280;4073;42.626;25.386;2022-11-23T13:17:09;95866.09;;;13.86;100.00
8061;BME280;4073;42.626;25.386;2022-11-23T13:22:33;95893.47;;;14.17;100.00
8061;BME280;4073;42.626;25.386;2022-11-23T13:30:37;95888.34;;;14.32;100.00
8061;BME280;4073;42.626;25.386;2022-11-23T13:40:40;95895.16;;;14.21;100.00
8061;BME280;4073;42.626;25.386;2022-11-23T13:43:21;95878.91;;;14.18;100.00
8061;BME280;4073;42.626;25.386;2022-11-23T13:48:41;95891.09;;;14.24;100.00
8061;BME280;4073;42.626;25.386;2022-11-23T13:51:08;95878.03;;;14.05;100.00
8061;BME280;4073;42.626;25.386;2022-11-23T13:53:40;95897.25;;;14.16;100.00
8061;BME280;4073;42.626;25.386;2022-11-23T13:58:50;95867.03;;;13.98;100.00
8061;BME280;4073;42.626;25.386;2022-11-23T14:04:22;95896.16;;;14.17;100.00
8061;BME280;4073;42.626;25.386;2022-11-23T14:06:56;95891.44;;;14.14;100.00
8061;BME280;4073;42.626;25.386;2022-11-23T14:09:35;95897.91;;;14.13;100.00
8061;BME280;4073;42.626;25.386;2022-11-23T14:12:47;95895.09;;;14.09;100.00
8061;BME280;4073;42.626;25.386;2022-11-23T14:15:22;95876.03;;;13.94;100.00
8061;BME280;4073;42.626;25.386;2022-11-23T14:34:56;95900.91;;;13.82;100.00
8061;BME280;4073;42.626;25.386;2022-11-23T14:40:27;95914.84;;;13.67;100.00
8061;BME280;4073;42.626;25.386;2022-11-23T14:42:54;95909.97;;;13.61;100.00
8061;BME280;4073;42.626;25.386;2022-11-23T14:45:23;95912.03;;;13.55;100.00
8061;BME280;4073;42.626;25.386;2022-11-23T14:47:51;95909.69;;;13.45;100.00
8061;BME280;4073;42.626;25.386;2022-11-23T14:50:25;95918.56;;;13.37;100.00
8061;BME280;4073;42.626;25.386;2022-11-23T14:52:52;95923.28;;;13.32;100.00
8061;BME280;4073;42.626;25.386;2022-11-23T14:55:29;95920.63;;;13.23;100.00
8061;BME280;4073;42.626;25.386;2022-11-23T14:58:01;95892.53;;;12.95;100.00
8061;BME280;4073;42.626;25.386;2022-11-23T15:00:34;95909.25;;;12.92;100.00
8061;BME280;4073;42.626;25.386;2022-11-23T15:03:14;95921.75;;;13.05;100.00
8061;BME280;4073;42.626;25.386;2022-11-23T15:05:53;95915.75;;;12.99;100.00
8061;BME280;4073;42.626;25.386;2022-11-23T15:08:29;95926.63;;;12.94;100.00
8061;BME280;4073;42.626;25.386;2022-11-23T15:11:11;95931.50;;;12.92;100.00
8061;BME280;4073;42.626;25.386;2022-11-23T15:13:51;95931.19;;;12.85;100.00
8061;BME280;4073;42.626;25.386;2022-11-23T15:16:20;95902.50;;;12.60;100.00
8061;BME280;4073;42.626;25.386;2022-11-23T15:18:49;95903.13;;;12.57;100.00